Time;durP1;ratioP1;P1;durP2;ratioP2;P2;SDS_P1;SDS_P2;PMS_P1;PMS_P2;Temp;Humidity;BMP_temperature;BMP_pressure;BME280_temperature;BME280_humidity;BME280_pressure;Samples;Min_cycle;Max_cycle;Signal;HPM_P1;HPM_P2
2022/10/17 00:00:47;;;;;;;2.83;1.67;;;13.10;99.90;;;;;;5033511;28;20457;-70
2022/10/17 00:03:14;;;;;;;1.73;1.60;;;13.00;99.90;;;;;;5032622;28;20457;-70
2022/10/17 00:05:41;;;;;;;1.93;1.73;;;13.00;99.90;;;;;;5032719;28;20560;-69
2022/10/17 00:08:09;;;;;;;2.47;2.27;;;13.00;99.90;;;;;;5033253;28;20457;-68
2022/10/17 00:10:36;;;;;;;2.13;1.90;;;13.00;99.90;;;;;;5033332;28;20472;-70
2022/10/17 00:13:05;;;;;;;3.23;1.90;;;13.00;99.90;;;;;;5032316;28;20863;-69
2022/10/17 00:15:32;;;;;;;2.43;1.80;;;13.00;99.90;;;;;;5033290;28;20467;-69
2022/10/17 00:17:59;;;;;;;2.00;1.80;;;13.00;99.90;;;;;;5033061;28;20465;-69
2022/10/17 00:20:26;;;;;;;3.17;2.10;;;12.90;99.90;;;;;;5067869;23;20210;-94
2022/10/17 00:22:53;;;;;;;2.30;2.00;;;13.00;99.90;;;;;;5077252;28;20472;-93
2022/10/17 00:28:01;;;;;;;2.27;2.07;;;12.90;99.90;;;;;;5076846;28;20534;-94
2022/10/17 00:30:31;;;;;;;2.60;1.70;;;12.90;99.90;;;;;;5076268;28;20550;-93
2022/10/17 00:32:58;;;;;;;1.67;1.57;;;12.90;99.90;;;;;;5074832;28;20486;-93
2022/10/17 00:35:25;;;;;;;3.05;2.15;;;12.90;99.90;;;;;;5074652;28;20531;-93
2022/10/17 00:37:52;;;;;;;2.43;2.23;;;12.80;99.90;;;;;;5073717;28;20277;-94
2022/10/17 00:40:19;;;;;;;4.03;2.10;;;12.80;99.90;;;;;;5073657;28;20563;-94
2022/10/17 00:42:46;;;;;;;2.73;1.67;;;12.80;99.90;;;;;;5073040;28;20461;-94
2022/10/17 00:45:32;;;;;;;2.13;1.70;;;12.80;99.90;;;;;;5073462;28;20459;-94
2022/10/17 00:50:50;;;;;;;2.17;1.97;;;12.70;99.90;;;;;;5073531;28;20482;-94
2022/10/17 00:53:18;;;;;;;2.57;1.83;;;12.70;99.90;;;;;;5073444;28;20486;-94
2022/10/17 00:55:49;;;;;;;3.58;2.05;;;12.70;99.90;;;;;;5074986;28;20438;-95
2022/10/17 00:58:18;;;;;;;2.13;1.93;;;12.70;99.90;;;;;;5077716;28;20197;-94
2022/10/17 01:01:16;;;;;;;2.73;1.97;;;12.60;99.90;;;;;;5077404;28;20452;-95
2022/10/17 01:03:45;;;;;;;1.50;1.40;;;12.60;99.90;;;;;;5077571;28;20448;-94
2022/10/17 01:06:11;;;;;;;1.60;1.50;;;12.60;99.90;;;;;;5077376;28;20259;-94
2022/10/17 01:08:39;;;;;;;1.85;1.67;;;12.50;99.90;;;;;;5076924;28;20476;-93
2022/10/17 01:11:26;;;;;;;2.90;1.90;;;12.60;99.90;;;;;;5076351;28;20245;-94
2022/10/17 01:14:01;;;;;;;2.08;1.80;;;12.60;99.90;;;;;;5076264;28;20476;-93
2022/10/17 01:16:40;;;;;;;2.95;2.20;;;12.50;99.90;;;;;;5076695;28;20193;-93
2022/10/17 01:19:50;;;;;;;3.80;2.00;;;12.50;99.90;;;;;;5075514;28;20197;-93
2022/10/17 01:22:26;;;;;;;1.93;1.70;;;12.50;99.90;;;;;;5075279;28;20280;-94
2022/10/17 01:25:20;;;;;;;2.05;1.70;;;12.50;99.90;;;;;;5075098;28;20551;-93
2022/10/17 01:28:41;;;;;;;5.55;1.60;;;12.50;99.90;;;;;;5072863;28;20200;-94
2022/10/17 01:31:26;;;;;;;1.73;1.58;;;12.50;99.90;;;;;;5075833;28;20301;-93
2022/10/17 01:37:19;;;;;;;1.48;1.38;;;12.40;99.90;;;;;;5075630;28;20502;-94
2022/10/17 01:42:57;;;;;;;4.40;1.83;;;12.40;99.90;;;;;;5075179;28;20193;-94
2022/10/17 01:45:31;;;;;;;2.13;1.43;;;12.30;99.90;;;;;;5076803;28;20181;-95
2022/10/17 01:48:43;;;;;;;2.88;1.80;;;12.30;99.90;;;;;;5077136;28;20487;-94
2022/10/17 01:51:29;;;;;;;1.73;1.63;;;12.30;99.90;;;;;;5077178;28;20221;-94
2022/10/17 01:54:13;;;;;;;2.35;1.70;;;12.30;99.90;;;;;;5074760;28;20249;-93
2022/10/17 01:56:44;;;;;;;2.53;1.80;;;12.20;99.90;;;;;;5072939;28;20273;-94
2022/10/17 01:59:15;;;;;;;2.00;1.90;;;12.20;99.90;;;;;;5072618;28;20689;-93
2022/10/17 02:01:47;;;;;;;3.00;2.28;;;12.20;99.90;;;;;;5072011;28;20261;-93
2022/10/17 02:04:15;;;;;;;1.93;1.70;;;12.10;99.90;;;;;;5071745;28;20200;-94
2022/10/17 02:06:42;;;;;;;1.98;1.80;;;12.10;99.90;;;;;;5071759;28;20464;-93
2022/10/17 02:09:22;;;;;;;7.72;2.10;;;12.10;99.90;;;;;;5070646;28;20212;-92
2022/10/17 02:12:12;;;;;;;4.13;1.85;;;12.10;99.90;;;;;;5069936;28;20206;-93
2022/10/17 02:14:51;;;;;;;1.75;1.65;;;12.00;99.90;;;;;;5070759;28;20232;-93
2022/10/17 02:20:37;;;;;;;1.70;1.50;;;12.10;99.90;;;;;;5069983;28;20464;-93
2022/10/17 02:23:11;;;;;;;1.92;1.73;;;12.10;99.90;;;;;;5069213;28;20228;-93
2022/10/17 02:25:43;;;;;;;2.00;1.80;;;12.10;99.90;;;;;;5071093;28;20207;-94
2022/10/17 02:28:21;;;;;;;1.80;1.50;;;12.00;99.90;;;;;;5070501;28;20213;-93
2022/10/17 02:30:54;;;;;;;2.92;1.65;;;12.00;99.90;;;;;;5070255;28;20245;-93
2022/10/17 02:33:27;;;;;;;2.13;1.92;;;12.00;99.90;;;;;;5068206;28;20218;-93
2022/10/17 02:38:45;;;;;;;1.90;1.80;;;12.00;99.90;;;;;;5070935;28;20208;-93
2022/10/17 02:41:18;;;;;;;4.80;2.13;;;12.00;99.90;;;;;;5071872;28;20264;-93
2022/10/17 02:44:25;;;;;;;2.22;1.90;;;11.90;99.90;;;;;;5075694;28;20510;-93
2022/10/17 02:47:14;;;;;;;1.73;1.60;;;11.90;99.90;;;;;;5076330;28;20228;-93
2022/10/17 02:50:05;;;;;;;2.30;2.10;;;11.90;99.90;;;;;;5075449;28;20221;-93
2022/10/17 02:52:40;;;;;;;2.30;2.10;;;11.90;99.90;;;;;;5075618;28;20258;-93
2022/10/17 02:55:12;;;;;;;1.58;1.48;;;11.90;99.90;;;;;;5077970;28;20246;-92
2022/10/17 02:57:42;;;;;;;1.65;1.30;;;11.90;99.90;;;;;;5077529;28;20360;-93
2022/10/17 03:00:38;;;;;;;2.10;1.90;;;11.80;99.90;;;;;;5073797;28;20209;-93
2022/10/17 03:03:32;;;;;;;1.95;1.75;;;11.80;99.90;;;;;;5075855;28;20194;-93
2022/10/17 03:05:59;;;;;;;1.60;1.50;;;11.80;99.90;;;;;;5075827;28;20209;-93
2022/10/17 03:08:28;;;;;;;2.95;2.00;;;11.80;99.90;;;;;;5076254;28;20258;-93
2022/10/17 03:10:54;;;;;;;3.95;1.60;;;11.80;99.90;;;;;;5073289;28;20230;-93
2022/10/17 03:13:21;;;;;;;2.40;2.20;;;11.80;99.90;;;;;;5072806;28;20240;-93
2022/10/17 03:15:48;;;;;;;3.73;1.70;;;11.70;99.90;;;;;;5072429;28;20265;-93
2022/10/17 03:18:17;;;;;;;2.53;2.33;;;11.80;99.90;;;;;;5072547;28;20543;-93
2022/10/17 03:20:44;;;;;;;1.90;1.70;;;11.70;99.90;;;;;;5071279;28;20256;-93
2022/10/17 03:23:11;;;;;;;2.13;1.73;;;11.70;99.90;;;;;;5071706;28;20292;-93
2022/10/17 03:25:41;;;;;;;4.85;2.10;;;11.80;99.90;;;;;;5067822;28;20237;-93
2022/10/17 03:28:41;;;;;;;1.98;1.77;;;11.80;99.90;;;;;;5071028;28;20202;-93
2022/10/17 03:31:46;;;;;;;1.92;1.75;;;11.80;99.90;;;;;;5073002;28;20209;-93
2022/10/17 03:34:15;;;;;;;1.83;1.73;;;11.80;99.90;;;;;;5069345;28;20225;-93
2022/10/17 03:37:02;;;;;;;5.70;2.20;;;11.80;99.90;;;;;;5070012;28;20213;-94
2022/10/17 03:39:33;;;;;;;3.42;1.98;;;11.80;99.90;;;;;;5056088;28;20237;-94
2022/10/17 03:42:04;;;;;;;1.88;1.50;;;11.70;99.90;;;;;;5049620;28;20203;-93
2022/10/17 03:44:35;;;;;;;3.00;2.17;;;11.70;99.90;;;;;;5046589;28;20213;-93
2022/10/17 03:47:16;;;;;;;1.85;1.73;;;11.70;99.90;;;;;;5048173;28;20256;-94
2022/10/17 03:52:50;;;;;;;4.10;2.35;;;11.70;99.90;;;;;;5020832;28;20211;-93
2022/10/17 03:55:17;;;;;;;3.58;1.85;;;11.70;99.90;;;;;;5070650;22;20253;-68
2022/10/17 03:57:45;;;;;;;2.00;1.40;;;11.70;99.90;;;;;;5040241;28;20195;-68
2022/10/17 04:00:13;;;;;;;1.83;1.60;;;11.70;99.90;;;;;;5043984;28;20221;-68
2022/10/17 04:02:39;;;;;;;2.25;2.05;;;11.60;99.90;;;;;;5041281;28;20194;-68
2022/10/17 04:05:07;;;;;;;2.50;2.30;;;11.60;99.90;;;;;;5024206;28;20584;-69
2022/10/17 04:07:36;;;;;;;3.50;1.95;;;11.60;99.90;;;;;;5021313;28;20195;-68
2022/10/17 04:10:03;;;;;;;2.10;1.55;;;11.60;99.90;;;;;;5021726;28;20625;-69
2022/10/17 04:12:29;;;;;;;1.70;1.60;;;11.60;99.90;;;;;;5020132;28;20822;-69
2022/10/17 04:14:57;;;;;;;2.15;1.95;;;11.60;99.90;;;;;;5021955;28;20230;-68
2022/10/17 04:17:24;;;;;;;2.45;2.17;;;11.50;99.90;;;;;;5022784;28;20200;-68
2022/10/17 04:19:51;;;;;;;2.30;2.10;;;11.50;99.90;;;;;;5020489;28;20206;-68
2022/10/17 04:22:18;;;;;;;2.65;2.40;;;11.50;99.90;;;;;;5021605;28;20198;-69
2022/10/17 04:24:44;;;;;;;3.50;2.10;;;11.50;99.90;;;;;;5021318;28;20462;-69
2022/10/17 04:27:11;;;;;;;2.33;2.13;;;11.50;99.90;;;;;;5020946;28;20662;-68
2022/10/17 04:29:38;;;;;;;2.22;1.80;;;11.50;99.90;;;;;;5032494;28;20198;-68
2022/10/17 04:32:06;;;;;;;2.00;1.83;;;11.50;99.90;;;;;;5032524;28;20203;-68
2022/10/17 04:34:33;;;;;;;5.30;2.15;;;11.50;99.90;;;;;;5032668;28;20230;-68
2022/10/17 04:36:59;;;;;;;2.40;1.92;;;11.50;99.90;;;;;;5032613;28;20198;-69
2022/10/17 04:39:26;;;;;;;3.33;2.65;;;11.60;99.90;;;;;;5032717;28;20206;-68
2022/10/17 04:41:55;;;;;;;4.28;2.10;;;11.60;99.90;;;;;;5031912;28;20225;-68
2022/10/17 04:44:22;;;;;;;4.75;2.22;;;11.60;99.90;;;;;;5032595;28;20220;-68
2022/10/17 04:46:48;;;;;;;3.13;2.08;;;11.60;99.90;;;;;;5032438;28;20202;-69
2022/10/17 04:49:17;;;;;;;2.20;2.00;;;11.70;99.90;;;;;;5032608;28;20602;-68
2022/10/17 04:51:43;;;;;;;3.97;1.88;;;11.70;99.90;;;;;;5031389;28;20207;-68
2022/10/17 04:54:10;;;;;;;2.20;2.00;;;11.70;99.90;;;;;;5032521;28;20241;-68
2022/10/17 04:56:37;;;;;;;3.00;2.30;;;11.70;99.90;;;;;;5032129;28;20218;-68
2022/10/17 04:59:03;;;;;;;2.63;2.03;;;11.70;99.90;;;;;;5032363;28;20202;-68
2022/10/17 05:01:30;;;;;;;1.92;1.77;;;11.70;99.90;;;;;;5031678;28;20198;-68
2022/10/17 05:03:57;;;;;;;2.90;2.35;;;11.70;99.90;;;;;;5032315;28;20234;-68
2022/10/17 05:06:27;;;;;;;3.50;1.80;;;11.70;99.90;;;;;;5032244;28;20210;-69
2022/10/17 05:08:54;;;;;;;2.40;2.20;;;11.70;99.90;;;;;;5031784;28;20206;-68
2022/10/17 05:11:22;;;;;;;4.47;2.47;;;11.70;99.90;;;;;;5031554;28;20199;-68
2022/10/17 05:13:51;;;;;;;1.77;1.60;;;11.70;99.90;;;;;;5031535;28;20222;-68
2022/10/17 05:16:17;;;;;;;1.85;1.75;;;11.70;99.90;;;;;;5032123;28;20233;-68
2022/10/17 05:18:44;;;;;;;2.45;2.17;;;11.70;99.90;;;;;;5031627;28;20241;-68
2022/10/17 05:21:11;;;;;;;2.33;1.90;;;11.70;99.90;;;;;;5031596;28;20203;-68
2022/10/17 05:23:39;;;;;;;2.25;2.05;;;11.70;99.90;;;;;;5031521;28;20226;-68
2022/10/17 05:26:06;;;;;;;3.28;2.35;;;11.60;99.90;;;;;;5031827;28;20199;-68
2022/10/17 05:28:33;;;;;;;1.77;1.67;;;11.60;99.90;;;;;;5029984;28;20589;-68
2022/10/17 05:31:03;;;;;;;2.42;2.22;;;11.60;99.90;;;;;;5021167;28;20672;-68
2022/10/17 05:33:29;;;;;;;3.30;2.38;;;11.60;99.90;;;;;;5017560;28;20227;-68
2022/10/17 05:35:56;;;;;;;2.72;1.90;;;11.70;99.90;;;;;;5021253;28;20214;-67
2022/10/17 05:38:23;;;;;;;2.60;2.40;;;11.70;99.90;;;;;;5022330;28;20203;-69
2022/10/17 05:40:51;;;;;;;2.65;2.17;;;11.70;99.90;;;;;;5014169;28;20206;-68
2022/10/17 05:43:18;;;;;;;2.17;1.85;;;11.70;99.90;;;;;;5011142;28;20207;-68
2022/10/17 05:45:44;;;;;;;2.28;2.08;;;11.60;99.90;;;;;;5011359;28;20195;-68
2022/10/17 05:48:11;;;;;;;2.03;1.83;;;11.60;99.90;;;;;;5011970;28;20211;-68
2022/10/17 05:50:38;;;;;;;2.00;1.80;;;11.60;99.90;;;;;;5011559;28;20205;-68
2022/10/17 05:53:04;;;;;;;2.03;1.80;;;11.60;99.90;;;;;;5011047;28;20701;-68
2022/10/17 05:55:31;;;;;;;2.03;1.90;;;11.60;99.90;;;;;;5011379;28;20230;-68
2022/10/17 05:58:01;;;;;;;1.73;1.60;;;11.60;99.90;;;;;;5011605;28;20579;-69
2022/10/17 06:00:28;;;;;;;4.57;1.80;;;11.60;99.90;;;;;;5011506;28;20203;-69
2022/10/17 06:02:55;;;;;;;2.08;1.88;;;11.50;99.90;;;;;;5010385;28;20207;-68
2022/10/17 06:05:21;;;;;;;3.42;3.20;;;11.50;99.90;;;;;;5011585;28;20309;-69
2022/10/17 06:07:51;;;;;;;4.85;2.60;;;11.50;99.90;;;;;;5011442;28;20557;-68
2022/10/17 06:10:18;;;;;;;2.92;2.20;;;11.50;99.90;;;;;;5031291;28;20217;-68
2022/10/17 06:12:45;;;;;;;2.75;1.85;;;11.50;99.90;;;;;;5050471;28;20198;-68
2022/10/17 06:15:13;;;;;;;2.20;2.00;;;11.50;99.90;;;;;;5050984;28;20222;-68
2022/10/17 06:17:40;;;;;;;2.05;1.95;;;11.60;99.90;;;;;;5051039;28;20205;-68
2022/10/17 06:20:08;;;;;;;2.35;2.10;;;11.60;99.90;;;;;;5051071;28;20209;-68
2022/10/17 06:22:34;;;;;;;2.90;2.60;;;11.50;99.90;;;;;;5128135;23;20233;-66
2022/10/17 06:25:02;;;;;;;3.17;2.15;;;11.60;99.90;;;;;;5068109;28;20218;-66
2022/10/17 06:27:28;;;;;;;2.95;2.05;;;11.60;99.90;;;;;;5050927;28;20204;-66
2022/10/17 06:29:55;;;;;;;2.92;2.38;;;11.60;99.90;;;;;;5050721;28;20551;-65
2022/10/17 06:32:23;;;;;;;2.75;2.40;;;11.60;99.90;;;;;;5050669;28;20209;-65
2022/10/17 06:34:50;;;;;;;4.22;2.33;;;11.60;99.90;;;;;;5050874;28;20232;-65
2022/10/17 06:37:17;;;;;;;2.30;2.10;;;11.60;99.90;;;;;;5050949;28;20225;-65
2022/10/17 06:39:43;;;;;;;2.25;2.05;;;11.60;99.90;;;;;;5050868;28;20293;-66
2022/10/17 06:42:10;;;;;;;2.28;2.03;;;11.60;99.90;;;;;;5050332;28;20209;-66
2022/10/17 06:44:38;;;;;;;2.40;2.20;;;11.60;99.90;;;;;;5050923;28;20225;-66
2022/10/17 06:47:05;;;;;;;3.53;2.20;;;11.90;99.90;;;;;;5050806;28;20677;-66
2022/10/17 06:49:33;;;;;;;4.15;2.47;;;12.30;99.90;;;;;;5050995;28;20205;-66
2022/10/17 06:52:00;;;;;;;2.35;2.15;;;12.50;99.90;;;;;;5050216;28;20673;-66
2022/10/17 06:54:27;;;;;;;2.90;2.55;;;12.70;99.90;;;;;;5050525;28;20225;-66
2022/10/17 06:56:55;;;;;;;2.45;2.25;;;12.80;99.90;;;;;;5050164;28;20574;-66
2022/10/17 06:59:23;;;;;;;3.25;2.67;;;13.00;99.90;;;;;;5041936;28;20202;-67
2022/10/17 07:01:50;;;;;;;2.70;2.50;;;13.10;99.90;;;;;;5031790;28;20302;-66
2022/10/17 07:04:17;;;;;;;2.90;2.60;;;13.20;99.90;;;;;;5030373;28;20235;-68
2022/10/17 07:06:45;;;;;;;4.00;2.47;;;13.40;99.90;;;;;;5029009;28;20641;-68
2022/10/17 07:09:12;;;;;;;2.63;2.42;;;13.60;99.90;;;;;;5029376;28;20453;-66
2022/10/17 07:11:39;;;;;;;2.42;2.22;;;13.70;99.90;;;;;;5028618;28;20212;-67
2022/10/17 07:14:07;;;;;;;3.38;2.60;;;13.90;99.90;;;;;;5029659;28;20249;-67
2022/10/17 07:16:33;;;;;;;2.70;2.47;;;14.00;99.90;;;;;;5032947;28;20288;-67
2022/10/17 07:19:00;;;;;;;2.53;2.33;;;14.10;99.90;;;;;;5033243;28;20461;-67
2022/10/17 07:21:27;;;;;;;3.43;2.50;;;14.20;99.90;;;;;;5031765;28;20480;-66
2022/10/17 07:23:55;;;;;;;2.63;2.43;;;14.40;99.90;;;;;;5032675;28;21025;-66
2022/10/17 07:26:22;;;;;;;2.73;2.20;;;14.50;99.90;;;;;;5033170;28;20457;-67
2022/10/17 07:28:52;;;;;;;2.40;2.20;;;14.70;99.90;;;;;;5032228;28;20840;-67
2022/10/17 07:31:21;;;;;;;3.70;2.87;;;14.90;99.90;;;;;;5032475;28;20461;-67
2022/10/17 07:33:48;;;;;;;2.50;2.30;;;15.10;99.90;;;;;;5032980;28;20495;-67
2022/10/17 07:36:15;;;;;;;3.97;2.70;;;15.20;99.90;;;;;;5032349;28;20974;-67
2022/10/17 07:38:42;;;;;;;2.30;2.10;;;15.40;99.90;;;;;;5032862;28;21021;-66
2022/10/17 07:41:11;;;;;;;4.17;2.30;;;15.60;99.90;;;;;;5032315;28;20967;-67
2022/10/17 07:43:40;;;;;;;2.70;2.40;;;15.80;99.90;;;;;;5032213;28;20939;-67
2022/10/17 07:46:07;;;;;;;2.23;2.03;;;16.00;99.90;;;;;;5032921;28;20471;-67
2022/10/17 07:48:34;;;;;;;6.03;2.00;;;16.20;99.90;;;;;;5032491;28;20483;-67
2022/10/17 07:51:03;;;;;;;2.27;2.03;;;16.50;99.90;;;;;;5031821;28;20559;-66
2022/10/17 07:53:30;;;;;;;2.40;2.20;;;16.80;99.90;;;;;;5031358;28;20497;-67
2022/10/17 07:55:57;;;;;;;2.07;1.83;;;17.00;99.90;;;;;;5032346;28;20489;-66
2022/10/17 07:58:27;;;;;;;1.70;1.60;;;17.20;99.90;;;;;;5030751;28;20469;-67
2022/10/17 08:00:54;;;;;;;2.27;1.87;;;17.40;99.90;;;;;;5032625;28;20755;-67
2022/10/17 08:03:21;;;;;;;1.60;1.50;;;17.60;99.90;;;;;;5032524;28;20457;-67
2022/10/17 08:05:47;;;;;;;2.60;2.40;;;17.90;99.90;;;;;;5032008;28;20468;-67
2022/10/17 08:08:14;;;;;;;3.30;1.70;;;18.00;99.90;;;;;;5032934;28;20471;-67
2022/10/17 08:10:41;;;;;;;2.27;2.07;;;18.20;99.90;;;;;;5032405;28;20979;-67
2022/10/17 08:13:08;;;;;;;1.83;1.73;;;18.40;99.90;;;;;;5032240;28;20487;-67
2022/10/17 08:15:37;;;;;;;2.50;1.70;;;18.60;99.90;;;;;;5032670;28;20525;-67
2022/10/17 08:18:04;;;;;;;2.13;1.93;;;18.80;99.90;;;;;;5032327;28;20519;-67
2022/10/17 08:20:31;;;;;;;2.90;1.87;;;18.90;99.90;;;;;;5032427;28;20469;-67
2022/10/17 08:22:57;;;;;;;2.70;2.37;;;19.20;99.90;;;;;;5031712;28;20841;-68
2022/10/17 08:25:24;;;;;;;3.73;2.17;;;19.40;99.90;;;;;;5032278;28;20844;-67
2022/10/17 08:27:51;;;;;;;2.60;1.83;;;19.60;99.90;;;;;;5031812;28;20469;-67
2022/10/17 08:30:18;;;;;;;1.50;1.30;;;19.80;99.90;;;;;;5032453;28;20457;-67
2022/10/17 08:32:46;;;;;;;1.93;1.73;;;19.90;99.90;;;;;;5031803;28;20966;-67
2022/10/17 08:35:14;;;;;;;1.90;1.40;;;20.00;99.90;;;;;;5032331;28;20493;-67
2022/10/17 08:37:41;;;;;;;2.30;2.10;;;20.00;99.90;;;;;;5032388;28;20465;-67
2022/10/17 08:40:14;;;;;;;2.43;1.93;;;20.10;99.90;;;;;;5032407;28;20470;-67
2022/10/17 08:42:51;;;;;;;2.23;1.50;;;20.20;99.90;;;;;;5029572;28;20842;-67
2022/10/17 08:45:24;;;;;;;2.50;1.70;;;20.40;99.90;;;;;;5032338;28;20485;-67
2022/10/17 08:47:57;;;;;;;2.13;1.50;;;20.50;99.90;;;;;;5032258;28;20454;-67
2022/10/17 08:50:32;;;;;;;1.20;1.10;;;20.60;99.90;;;;;;5032002;28;20470;-67
2022/10/17 08:53:05;;;;;;;1.80;1.70;;;20.70;99.90;;;;;;5032023;28;20467;-66
2022/10/17 08:55:36;;;;;;;1.93;1.43;;;20.80;99.90;;;;;;5032228;28;20494;-67
2022/10/17 08:58:05;;;;;;;2.93;1.57;;;21.00;99.90;;;;;;5032554;28;20469;-67
2022/10/17 09:00:33;;;;;;;1.70;1.60;;;21.10;99.90;;;;;;5032476;28;20480;-67
2022/10/17 09:03:13;;;;;;;2.20;2.00;;;21.20;99.90;;;;;;5031827;28;20948;-67
2022/10/17 09:05:48;;;;;;;2.70;1.70;;;21.40;99.90;;;;;;5031924;28;20452;-67
2022/10/17 09:08:28;;;;;;;2.20;2.00;;;21.50;99.90;;;;;;5032520;28;20545;-66
2022/10/17 09:10:58;;;;;;;1.60;1.50;;;21.50;99.90;;;;;;5032270;28;20478;-67
2022/10/17 09:13:40;;;;;;;2.30;1.60;;;21.50;99.90;;;;;;5032541;28;20920;-66
2022/10/17 09:16:51;;;;;;;3.40;1.57;;;21.50;99.90;;;;;;5033112;28;20489;-66
2022/10/17 09:19:24;;;;;;;2.13;1.83;;;21.60;99.90;;;;;;4996148;28;20456;-66
2022/10/17 09:21:55;;;;;;;1.67;1.40;;;21.50;99.90;;;;;;5031754;28;20895;-66
2022/10/17 09:24:38;;;;;;;5.67;1.63;;;21.60;99.90;;;;;;5032507;28;20485;-66
2022/10/17 09:27:11;;;;;;;1.80;1.70;;;21.80;99.90;;;;;;5032155;28;20479;-66
2022/10/17 09:29:38;;;;;;;2.20;2.00;;;22.00;99.90;;;;;;5032088;28;20467;-66
2022/10/17 09:32:13;;;;;;;2.53;1.90;;;22.10;99.90;;;;;;5031484;28;20952;-66
2022/10/17 09:34:41;;;;;;;2.30;1.57;;;22.10;99.90;;;;;;5030642;28;20482;-66
2022/10/17 09:37:13;;;;;;;2.27;2.07;;;22.20;99.90;;;;;;5031655;28;20454;-66
2022/10/17 09:39:40;;;;;;;1.70;1.60;;;22.30;99.90;;;;;;5028736;28;21037;-66
2022/10/17 09:42:12;;;;;;;1.87;1.77;;;22.20;99.90;;;;;;5030604;28;20463;-66
2022/10/17 09:44:47;;;;;;;2.43;1.87;;;22.20;99.90;;;;;;5030531;28;20483;-66
2022/10/17 09:47:23;;;;;;;2.20;2.10;;;22.20;99.90;;;;;;5031264;28;20971;-67
2022/10/17 09:49:51;;;;;;;2.23;1.90;;;22.30;99.90;;;;;;5031209;28;20472;-66
2022/10/17 09:52:21;;;;;;;2.90;2.10;;;22.40;99.90;;;;;;5029268;28;20465;-66
2022/10/17 09:54:50;;;;;;;1.80;1.70;;;22.50;99.90;;;;;;5050456;28;20484;-66
2022/10/17 09:57:18;;;;;;;2.83;1.90;;;22.50;99.90;;;;;;5050792;28;20471;-66
2022/10/17 09:59:48;;;;;;;1.83;1.73;;;22.70;99.90;;;;;;5050901;28;20498;-66
2022/10/17 10:02:19;;;;;;;2.17;1.70;;;22.70;99.90;;;;;;5050149;28;20462;-67
2022/10/17 10:04:56;;;;;;;1.93;1.63;;;22.80;99.90;;;;;;5050673;28;20489;-67
2022/10/17 10:07:23;;;;;;;1.50;1.40;;;22.90;99.90;;;;;;5051089;28;20465;-67
2022/10/17 10:09:51;;;;;;;1.63;1.53;;;22.90;99.90;;;;;;5050348;28;20474;-67
2022/10/17 10:12:19;;;;;;;3.80;2.00;;;23.00;99.90;;;;;;5050530;28;20471;-66
2022/10/17 10:14:46;;;;;;;1.60;1.50;;;23.20;99.90;;;;;;5050497;28;20487;-66
2022/10/17 10:17:33;;;;;;;1.70;1.60;;;23.30;99.90;;;;;;5050875;28;20519;-67
2022/10/17 10:20:01;;;;;;;6.50;2.00;;;23.50;99.90;;;;;;5050844;28;20462;-67
2022/10/17 10:22:28;;;;;;;2.70;1.90;;;23.60;99.90;;;;;;5049681;28;20974;-67
2022/10/17 10:25:08;;;;;;;1.50;1.40;;;23.70;99.90;;;;;;5051074;28;20482;-67
2022/10/17 10:27:35;;;;;;;2.00;1.80;;;23.70;99.90;;;;;;5050850;28;20513;-68
2022/10/17 10:30:03;;;;;;;1.40;1.30;;;23.60;99.90;;;;;;5051049;28;20823;-69
2022/10/17 10:32:31;;;;;;;1.80;1.67;;;23.60;99.90;;;;;;5050389;28;20968;-68
2022/10/17 10:35:03;;;;;;;1.90;1.80;;;23.50;99.90;;;;;;5050402;28;20994;-68
2022/10/17 10:37:38;;;;;;;1.97;1.60;;;23.50;99.90;;;;;;5050477;28;20995;-68
2022/10/17 10:40:07;;;;;;;1.77;1.50;;;23.50;99.90;;;;;;5050925;28;20923;-68
2022/10/17 10:42:36;;;;;;;2.10;1.77;;;23.50;99.90;;;;;;5050080;28;20471;-68
2022/10/17 10:45:15;;;;;;;1.63;1.53;;;23.60;99.90;;;;;;5050386;28;20482;-68
2022/10/17 10:47:50;;;;;;;1.53;1.40;;;23.70;99.90;;;;;;5050843;28;20962;-68
2022/10/17 10:50:26;;;;;;;2.00;1.80;;;23.80;99.90;;;;;;5053730;28;20463;-68
2022/10/17 10:53:03;;;;;;;1.90;1.70;;;24.00;99.90;;;;;;5053947;28;20466;-68
2022/10/17 10:55:35;;;;;;;3.00;1.87;;;24.10;99.90;;;;;;5054849;28;20479;-68
2022/10/17 10:58:20;;;;;;;2.67;2.00;;;24.40;99.90;;;;;;5054540;28;20470;-68
2022/10/17 11:00:48;;;;;;;3.00;1.83;;;24.60;99.90;;;;;;5054223;28;20467;-68
2022/10/17 11:03:19;;;;;;;1.73;1.57;;;24.80;99.90;;;;;;5054029;28;20456;-68
2022/10/17 11:05:52;;;;;;;1.63;1.53;;;24.70;99.90;;;;;;5054569;28;20467;-68
2022/10/17 11:08:26;;;;;;;3.13;1.37;;;24.80;99.90;;;;;;5054818;28;20951;-68
2022/10/17 11:11:16;;;;;;;1.93;1.70;;;24.80;99.90;;;;;;5054526;28;20463;-68
2022/10/17 11:13:48;;;;;;;1.70;1.60;;;25.00;99.90;;;;;;5054482;28;20480;-68
2022/10/17 11:16:32;;;;;;;2.27;1.53;;;25.10;99.90;;;;;;5054395;28;20479;-68
2022/10/17 11:19:08;;;;;;;2.47;1.80;;;25.10;99.90;;;;;;5055574;28;20470;-68
2022/10/17 11:21:45;;;;;;;2.13;1.93;;;25.20;99.90;;;;;;5053802;28;20474;-68
2022/10/17 11:24:18;;;;;;;2.13;1.93;;;25.40;99.90;;;;;;5053733;28;20494;-68
2022/10/17 11:26:52;;;;;;;1.70;1.43;;;25.60;99.90;;;;;;5053815;28;20452;-68
2022/10/17 11:29:19;;;;;;;1.47;1.37;;;25.80;99.90;;;;;;5053764;28;20471;-67
2022/10/17 11:31:52;;;;;;;1.90;1.50;;;25.60;99.90;;;;;;5053301;28;21012;-68
2022/10/17 11:34:23;;;;;;;2.70;1.47;;;25.60;99.90;;;;;;5053701;28;20483;-68
2022/10/17 11:36:56;;;;;;;1.50;1.40;;;25.80;99.90;;;;;;5053163;28;20499;-68
2022/10/17 11:39:29;;;;;;;2.33;1.70;;;26.10;99.90;;;;;;5054039;28;20463;-68
2022/10/17 11:42:00;;;;;;;2.63;1.70;;;26.40;99.90;;;;;;5053127;28;20467;-67
2022/10/17 11:44:32;;;;;;;1.60;1.40;;;26.60;99.90;;;;;;5053523;28;20479;-67
2022/10/17 11:47:03;;;;;;;2.03;1.83;;;26.80;99.90;;;;;;5053795;28;20456;-67
2022/10/17 11:49:34;;;;;;;1.50;1.40;;;26.70;99.90;;;;;;5053330;28;20467;-67
2022/10/17 11:52:09;;;;;;;1.87;1.67;;;26.80;99.90;;;;;;5052823;28;20460;-67
2022/10/17 11:54:42;;;;;;;2.87;1.50;;;26.80;99.90;;;;;;5053130;28;20490;-67
2022/10/17 11:57:26;;;;;;;2.07;1.87;;;26.70;99.90;;;;;;5053344;28;20491;-67
2022/10/17 12:00:02;;;;;;;1.40;1.30;;;26.80;99.90;;;;;;5052501;28;20470;-67
2022/10/17 12:02:37;;;;;;;2.13;1.43;;;26.80;99.90;;;;;;5052001;28;20981;-67
2022/10/17 12:05:16;;;;;;;1.63;1.30;;;27.10;99.90;;;;;;5053647;28;20476;-67
2022/10/17 12:07:50;;;;;;;3.00;1.90;;;27.10;99.90;;;;;;5045517;28;20460;-67
2022/10/17 12:10:27;;;;;;;1.83;1.20;;;27.20;99.90;;;;;;5033748;28;20469;-66
2022/10/17 12:12:54;;;;;;;2.20;1.60;;;27.10;99.90;;;;;;5032607;28;20492;-66
2022/10/17 12:15:31;;;;;;;2.90;1.60;;;27.10;99.90;;;;;;5033580;28;20987;-66
2022/10/17 12:18:01;;;;;;;1.90;1.67;;;27.10;99.90;;;;;;5032384;28;20469;-66
2022/10/17 12:20:31;;;;;;;3.80;1.57;;;27.20;99.90;;;;;;5033914;28;20522;-66
2022/10/17 12:23:18;;;;;;;3.07;1.73;;;27.20;99.90;;;;;;5053406;28;20500;-67
2022/10/17 12:25:56;;;;;;;1.90;1.50;;;27.10;99.90;;;;;;5053585;28;20463;-67
2022/10/17 12:28:28;;;;;;;2.07;1.80;;;27.10;99.90;;;;;;5054375;28;20513;-67
2022/10/17 12:30:58;;;;;;;2.20;1.50;;;27.10;99.90;;;;;;5053684;28;20468;-66
2022/10/17 12:33:31;;;;;;;1.60;1.50;;;26.90;99.90;;;;;;5052931;28;20484;-67
2022/10/17 12:36:44;;;;;;;1.77;1.67;;;26.80;99.90;;;;;;5053265;28;20492;-67
2022/10/17 12:39:53;;;;;;;1.50;1.23;;;26.70;99.90;;;;;;5013215;28;20465;-66
2022/10/17 12:42:46;;;;;;;3.90;2.10;;;26.80;99.90;;;;;;5012906;28;20461;-68
2022/10/17 12:45:53;;;;;;;1.50;1.40;;;26.70;99.90;;;;;;5012662;28;20474;-68
2022/10/17 12:49:01;;;;;;;1.80;1.70;;;26.90;99.90;;;;;;5009269;28;20465;-68
2022/10/17 12:51:29;;;;;;;2.70;1.67;;;27.10;99.90;;;;;;5011949;28;20471;-68
2022/10/17 12:53:59;;;;;;;1.83;1.50;;;27.20;99.90;;;;;;5012281;28;20551;-68
2022/10/17 12:56:37;;;;;;;2.47;1.87;;;27.20;99.90;;;;;;5012569;28;20482;-68
2022/10/17 12:59:16;;;;;;;1.80;1.70;;;27.10;99.90;;;;;;5012215;28;20979;-68
2022/10/17 13:01:46;;;;;;;1.73;1.63;;;27.10;99.90;;;;;;5011115;28;20458;-68
2022/10/17 13:04:13;;;;;;;1.77;1.53;;;27.10;99.90;;;;;;5012376;28;20486;-68
2022/10/17 13:06:45;;;;;;;1.70;1.30;;;27.00;99.90;;;;;;5011840;28;20465;-68
2022/10/17 13:09:21;;;;;;;1.30;1.07;;;26.90;99.90;;;;;;5012478;28;20469;-68
2022/10/17 13:11:49;;;;;;;1.80;1.33;;;27.00;99.90;;;;;;5011647;28;20828;-68
2022/10/17 13:14:21;;;;;;;1.33;1.10;;;27.00;99.90;;;;;;5011836;28;20478;-68
2022/10/17 13:16:53;;;;;;;1.70;1.60;;;26.80;99.90;;;;;;5012318;28;20486;-68
2022/10/17 13:19:22;;;;;;;3.07;1.27;;;26.80;99.90;;;;;;5012391;28;20458;-68
2022/10/17 13:21:55;;;;;;;2.57;1.30;;;26.80;99.90;;;;;;5011682;28;21060;-68
2022/10/17 13:24:27;;;;;;;2.13;1.30;;;26.80;99.90;;;;;;5012181;28;20486;-68
2022/10/17 13:26:54;;;;;;;1.50;1.40;;;26.80;99.90;;;;;;5011765;28;20465;-68
2022/10/17 13:29:24;;;;;;;2.67;1.80;;;26.80;99.90;;;;;;5011550;28;20462;-68
2022/10/17 13:31:53;;;;;;;1.50;1.40;;;26.80;99.90;;;;;;5012185;28;20569;-68
2022/10/17 13:34:22;;;;;;;1.50;1.20;;;26.90;99.90;;;;;;5011794;28;20984;-68